sensor_id;sensor_type;location;lat;lon;timestamp;P1;durP1;ratioP1;P2;durP2;ratioP2
38266;SDS011;24063;51.794;19.578;2022-12-18T00:00:40;39.65;;;33.67;;
38266;SDS011;24063;51.794;19.578;2022-12-18T00:02:03;36.58;;;32.06;;
38266;SDS011;24063;51.794;19.578;2022-12-18T00:03:05;40.40;;;35.50;;
38266;SDS011;24063;51.794;19.578;2022-12-18T00:04:20;41.78;;;36.42;;
38266;SDS011;24063;51.794;19.578;2022-12-18T00:05:24;42.71;;;36.41;;
38266;SDS011;24063;51.794;19.578;2022-12-18T00:06:27;42.85;;;36.43;;
38266;SDS011;24063;51.794;19.578;2022-12-18T00:07:30;37.85;;;33.48;;
38266;SDS011;24063;51.794;19.578;2022-12-18T00:08:32;41.10;;;35.91;;
38266;SDS011;24063;51.794;19.578;2022-12-18T00:09:34;41.08;;;35.24;;
38266;SDS011;24063;51.794;19.578;2022-12-18T00:10:41;43.28;;;35.80;;
38266;SDS011;24063;51.794;19.578;2022-12-18T00:11:43;41.50;;;34.99;;
38266;SDS011;24063;51.794;19.578;2022-12-18T00:12:45;37.66;;;32.66;;
38266;SDS011;24063;51.794;19.578;2022-12-18T00:13:47;39.09;;;33.91;;
38266;SDS011;24063;51.794;19.578;2022-12-18T00:14:50;38.27;;;33.32;;
38266;SDS011;24063;51.794;19.578;2022-12-18T00:15:52;37.40;;;32.54;;
38266;SDS011;24063;51.794;19.578;2022-12-18T00:16:57;38.31;;;33.46;;
38266;SDS011;24063;51.794;19.578;2022-12-18T00:18:02;40.16;;;34.77;;
38266;SDS011;24063;51.794;19.578;2022-12-18T00:19:04;38.80;;;33.75;;
38266;SDS011;24063;51.794;19.578;2022-12-18T00:20:07;36.48;;;32.24;;
38266;SDS011;24063;51.794;19.578;2022-12-18T00:21:11;37.07;;;32.54;;
38266;SDS011;24063;51.794;19.578;2022-12-18T00:22:17;36.73;;;31.83;;
38266;SDS011;24063;51.794;19.578;2022-12-18T00:23:19;37.07;;;31.88;;
38266;SDS011;24063;51.794;19.578;2022-12-18T00:24:21;34.47;;;29.76;;
38266;SDS011;24063;51.794;19.578;2022-12-18T00:25:23;34.65;;;30.16;;
38266;SDS011;24063;51.794;19.578;2022-12-18T00:26:27;33.24;;;29.57;;
38266;SDS011;24063;51.794;19.578;2022-12-18T00:27:32;35.97;;;30.86;;
38266;SDS011;24063;51.794;19.578;2022-12-18T00:28:34;37.16;;;32.03;;
38266;SDS011;24063;51.794;19.578;2022-12-18T00:29:36;36.46;;;32.11;;
38266;SDS011;24063;51.794;19.578;2022-12-18T00:30:39;38.15;;;33.30;;
38266;SDS011;24063;51.794;19.578;2022-12-18T00:31:42;35.51;;;31.24;;
38266;SDS011;24063;51.794;19.578;2022-12-18T00:32:45;35.95;;;32.04;;
38266;SDS011;24063;51.794;19.578;2022-12-18T00:33:47;37.04;;;32.36;;
38266;SDS011;24063;51.794;19.578;2022-12-18T00:34:56;38.52;;;33.60;;
38266;SDS011;24063;51.794;19.578;2022-12-18T00:36:02;41.38;;;35.29;;
38266;SDS011;24063;51.794;19.578;2022-12-18T00:37:07;39.91;;;34.27;;
38266;SDS011;24063;51.794;19.578;2022-12-18T00:38:10;42.91;;;36.29;;
38266;SDS011;24063;51.794;19.578;2022-12-18T00:39:12;42.11;;;35.55;;
38266;SDS011;24063;51.794;19.578;2022-12-18T00:40:14;42.93;;;36.58;;
38266;SDS011;24063;51.794;19.578;2022-12-18T00:41:16;42.58;;;36.14;;
38266;SDS011;24063;51.794;19.578;2022-12-18T00:42:40;39.32;;;34.44;;
38266;SDS011;24063;51.794;19.578;2022-12-18T00:43:57;40.74;;;34.87;;
38266;SDS011;24063;51.794;19.578;2022-12-18T00:45:00;39.64;;;34.68;;
38266;SDS011;24063;51.794;19.578;2022-12-18T00:46:02;38.10;;;33.49;;
38266;SDS011;24063;51.794;19.578;2022-12-18T00:47:05;41.38;;;35.66;;
38266;SDS011;24063;51.794;19.578;2022-12-18T00:48:07;41.47;;;35.65;;
38266;SDS011;24063;51.794;19.578;2022-12-18T00:49:10;38.80;;;33.40;;
38266;SDS011;24063;51.794;19.578;2022-12-18T00:50:15;38.21;;;33.76;;
38266;SDS011;24063;51.794;19.578;2022-12-18T00:51:17;39.50;;;34.13;;
38266;SDS011;24063;51.794;19.578;2022-12-18T00:52:19;38.82;;;33.71;;
38266;SDS011;24063;51.794;19.578;2022-12-18T00:53:21;41.70;;;35.41;;
38266;SDS011;24063;51.794;19.578;2022-12-18T00:54:24;39.84;;;34.36;;
38266;SDS011;24063;51.794;19.578;2022-12-18T00:55:27;36.99;;;33.04;;
38266;SDS011;24063;51.794;19.578;2022-12-18T00:56:29;38.09;;;34.02;;
38266;SDS011;24063;51.794;19.578;2022-12-18T00:57:31;39.68;;;34.33;;
38266;SDS011;24063;51.794;19.578;2022-12-18T00:58:33;38.63;;;34.08;;
38266;SDS011;24063;51.794;19.578;2022-12-18T00:59:38;34.99;;;31.80;;
38266;SDS011;24063;51.794;19.578;2022-12-18T01:00:40;37.92;;;33.65;;
38266;SDS011;24063;51.794;19.578;2022-12-18T01:01:45;36.10;;;31.65;;
38266;SDS011;24063;51.794;19.578;2022-12-18T01:02:48;35.72;;;31.65;;
38266;SDS011;24063;51.794;19.578;2022-12-18T01:03:51;39.09;;;33.60;;
38266;SDS011;24063;51.794;19.578;2022-12-18T01:04:54;37.64;;;32.98;;
38266;SDS011;24063;51.794;19.578;2022-12-18T01:05:56;34.55;;;30.26;;
38266;SDS011;24063;51.794;19.578;2022-12-18T01:06:58;33.61;;;29.55;;
38266;SDS011;24063;51.794;19.578;2022-12-18T01:08:01;38.07;;;32.87;;
38266;SDS011;24063;51.794;19.578;2022-12-18T01:09:03;38.60;;;33.42;;
38266;SDS011;24063;51.794;19.578;2022-12-18T01:10:32;38.04;;;32.87;;
38266;SDS011;24063;51.794;19.578;2022-12-18T01:11:34;37.89;;;32.66;;
38266;SDS011;24063;51.794;19.578;2022-12-18T01:12:36;35.45;;;31.01;;
38266;SDS011;24063;51.794;19.578;2022-12-18T01:13:38;38.16;;;33.45;;
38266;SDS011;24063;51.794;19.578;2022-12-18T01:14:42;39.32;;;34.48;;
38266;SDS011;24063;51.794;19.578;2022-12-18T01:15:48;38.11;;;33.41;;
38266;SDS011;24063;51.794;19.578;2022-12-18T01:16:51;37.20;;;32.27;;
38266;SDS011;24063;51.794;19.578;2022-12-18T01:17:55;38.68;;;33.68;;
38266;SDS011;24063;51.794;19.578;2022-12-18T01:18:57;40.15;;;33.97;;
38266;SDS011;24063;51.794;19.578;2022-12-18T01:20:01;38.75;;;33.92;;
38266;SDS011;24063;51.794;19.578;2022-12-18T01:21:06;37.34;;;32.63;;
38266;SDS011;24063;51.794;19.578;2022-12-18T01:22:11;35.90;;;31.16;;
38266;SDS011;24063;51.794;19.578;2022-12-18T01:23:13;35.60;;;30.89;;
38266;SDS011;24063;51.794;19.578;2022-12-18T01:24:15;34.62;;;30.25;;
38266;SDS011;24063;51.794;19.578;2022-12-18T01:25:17;35.58;;;31.36;;
38266;SDS011;24063;51.794;19.578;2022-12-18T01:26:19;35.71;;;31.50;;
38266;SDS011;24063;51.794;19.578;2022-12-18T01:27:22;33.96;;;30.90;;
38266;SDS011;24063;51.794;19.578;2022-12-18T01:28:25;35.00;;;31.06;;
38266;SDS011;24063;51.794;19.578;2022-12-18T01:29:27;38.49;;;33.14;;
38266;SDS011;24063;51.794;19.578;2022-12-18T01:30:30;36.50;;;31.92;;
38266;SDS011;24063;51.794;19.578;2022-12-18T01:31:33;37.32;;;32.61;;
38266;SDS011;24063;51.794;19.578;2022-12-18T01:32:36;36.60;;;31.99;;
38266;SDS011;24063;51.794;19.578;2022-12-18T01:33:38;37.69;;;32.37;;
38266;SDS011;24063;51.794;19.578;2022-12-18T01:34:41;35.87;;;30.98;;
38266;SDS011;24063;51.794;19.578;2022-12-18T01:35:43;35.57;;;31.78;;
38266;SDS011;24063;51.794;19.578;2022-12-18T01:36:45;37.04;;;32.13;;
38266;SDS011;24063;51.794;19.578;2022-12-18T01:37:47;36.67;;;32.05;;
38266;SDS011;24063;51.794;19.578;2022-12-18T01:38:50;40.26;;;34.43;;
38266;SDS011;24063;51.794;19.578;2022-12-18T01:39:52;40.37;;;34.43;;
38266;SDS011;24063;51.794;19.578;2022-12-18T01:40:59;36.25;;;32.11;;
38266;SDS011;24063;51.794;19.578;2022-12-18T01:42:02;35.10;;;31.12;;
38266;SDS011;24063;51.794;19.578;2022-12-18T01:43:05;35.30;;;30.54;;
38266;SDS011;24063;51.794;19.578;2022-12-18T01:44:46;36.66;;;31.92;;
38266;SDS011;24063;51.794;19.578;2022-12-18T01:46:08;35.65;;;30.28;;
38266;SDS011;24063;51.794;19.578;2022-12-18T01:47:13;37.10;;;31.59;;
38266;SDS011;24063;51.794;19.578;2022-12-18T01:48:22;36.53;;;32.14;;
38266;SDS011;24063;51.794;19.578;2022-12-18T01:49:24;35.57;;;30.93;;
38266;SDS011;24063;51.794;19.578;2022-12-18T01:50:29;38.04;;;32.75;;
38266;SDS011;24063;51.794;19.578;2022-12-18T01:51:35;34.80;;;30.44;;
38266;SDS011;24063;51.794;19.578;2022-12-18T01:52:38;34.71;;;29.81;;
38266;SDS011;24063;51.794;19.578;2022-12-18T01:53:45;35.16;;;30.49;;
38266;SDS011;24063;51.794;19.578;2022-12-18T01:54:49;34.80;;;30.72;;
38266;SDS011;24063;51.794;19.578;2022-12-18T01:55:55;32.44;;;29.02;;
38266;SDS011;24063;51.794;19.578;2022-12-18T01:57:01;32.92;;;29.51;;
38266;SDS011;24063;51.794;19.578;2022-12-18T01:58:03;34.45;;;30.98;;
38266;SDS011;24063;51.794;19.578;2022-12-18T01:59:06;33.76;;;29.28;;
38266;SDS011;24063;51.794;19.578;2022-12-18T02:00:14;33.21;;;29.70;;
38266;SDS011;24063;51.794;19.578;2022-12-18T02:01:20;34.96;;;30.91;;
38266;SDS011;24063;51.794;19.578;2022-12-18T02:02:24;37.32;;;32.47;;
38266;SDS011;24063;51.794;19.578;2022-12-18T02:03:31;35.50;;;31.25;;
38266;SDS011;24063;51.794;19.578;2022-12-18T02:04:32;33.32;;;29.12;;
38266;SDS011;24063;51.794;19.578;2022-12-18T02:06:43;35.68;;;31.42;;
38266;SDS011;24063;51.794;19.578;2022-12-18T02:08:04;34.18;;;29.79;;
38266;SDS011;24063;51.794;19.578;2022-12-18T02:09:19;33.14;;;29.22;;
38266;SDS011;24063;51.794;19.578;2022-12-18T02:10:30;34.41;;;29.92;;
38266;SDS011;24063;51.794;19.578;2022-12-18T02:11:39;34.47;;;30.23;;
38266;SDS011;24063;51.794;19.578;2022-12-18T02:13:03;32.72;;;28.92;;
38266;SDS011;24063;51.794;19.578;2022-12-18T02:14:17;36.02;;;31.21;;
38266;SDS011;24063;51.794;19.578;2022-12-18T02:18:25;35.31;;;30.82;;
38266;SDS011;24063;51.794;19.578;2022-12-18T02:22:37;36.01;;;31.00;;
38266;SDS011;24063;51.794;19.578;2022-12-18T02:26:15;34.81;;;31.01;;
38266;SDS011;24063;51.794;19.578;2022-12-18T02:27:24;34.74;;;30.55;;
38266;SDS011;24063;51.794;19.578;2022-12-18T02:28:30;33.21;;;29.54;;
38266;SDS011;24063;51.794;19.578;2022-12-18T02:29:50;32.89;;;29.12;;
38266;SDS011;24063;51.794;19.578;2022-12-18T02:31:02;33.53;;;29.37;;
38266;SDS011;24063;51.794;19.578;2022-12-18T02:32:11;33.89;;;29.80;;
38266;SDS011;24063;51.794;19.578;2022-12-18T02:33:19;35.90;;;31.54;;
38266;SDS011;24063;51.794;19.578;2022-12-18T02:34:26;34.07;;;30.47;;
38266;SDS011;24063;51.794;19.578;2022-12-18T02:35:33;33.26;;;29.54;;
38266;SDS011;24063;51.794;19.578;2022-12-18T02:36:39;36.72;;;32.43;;
38266;SDS011;24063;51.794;19.578;2022-12-18T02:37:45;34.25;;;30.13;;
38266;SDS011;24063;51.794;19.578;2022-12-18T02:38:49;36.82;;;31.81;;
38266;SDS011;24063;51.794;19.578;2022-12-18T02:39:56;32.94;;;28.98;;
38266;SDS011;24063;51.794;19.578;2022-12-18T02:41:01;35.87;;;31.27;;
38266;SDS011;24063;51.794;19.578;2022-12-18T02:42:05;36.32;;;31.53;;
38266;SDS011;24063;51.794;19.578;2022-12-18T02:43:12;34.25;;;29.91;;
38266;SDS011;24063;51.794;19.578;2022-12-18T02:44:16;33.92;;;29.69;;
38266;SDS011;24063;51.794;19.578;2022-12-18T02:45:20;33.97;;;29.84;;
38266;SDS011;24063;51.794;19.578;2022-12-18T02:46:27;35.87;;;30.97;;
38266;SDS011;24063;51.794;19.578;2022-12-18T02:47:38;34.80;;;30.17;;
38266;SDS011;24063;51.794;19.578;2022-12-18T02:48:45;33.85;;;29.72;;
38266;SDS011;24063;51.794;19.578;2022-12-18T02:52:18;33.72;;;29.67;;
38266;SDS011;24063;51.794;19.578;2022-12-18T02:57:26;34.33;;;29.74;;
38266;SDS011;24063;51.794;19.578;2022-12-18T02:58:47;34.60;;;30.29;;
38266;SDS011;24063;51.794;19.578;2022-12-18T03:00:10;34.40;;;29.49;;
38266;SDS011;24063;51.794;19.578;2022-12-18T03:01:30;34.19;;;29.98;;
38266;SDS011;24063;51.794;19.578;2022-12-18T03:02:42;36.10;;;30.99;;
38266;SDS011;24063;51.794;19.578;2022-12-18T03:03:59;33.12;;;29.10;;
38266;SDS011;24063;51.794;19.578;2022-12-18T03:05:17;31.66;;;28.60;;
38266;SDS011;24063;51.794;19.578;2022-12-18T03:06:37;33.11;;;29.21;;
38266;SDS011;24063;51.794;19.578;2022-12-18T03:07:56;35.40;;;30.37;;
38266;SDS011;24063;51.794;19.578;2022-12-18T03:09:13;35.99;;;31.59;;
38266;SDS011;24063;51.794;19.578;2022-12-18T03:10:24;34.90;;;30.34;;
38266;SDS011;24063;51.794;19.578;2022-12-18T03:11:32;33.17;;;29.43;;
38266;SDS011;24063;51.794;19.578;2022-12-18T03:13:03;33.57;;;29.89;;
38266;SDS011;24063;51.794;19.578;2022-12-18T03:14:12;35.90;;;31.15;;
38266;SDS011;24063;51.794;19.578;2022-12-18T03:15:24;38.01;;;32.54;;
38266;SDS011;24063;51.794;19.578;2022-12-18T03:16:41;36.19;;;31.73;;
38266;SDS011;24063;51.794;19.578;2022-12-18T03:17:49;35.20;;;30.83;;
38266;SDS011;24063;51.794;19.578;2022-12-18T03:19:09;33.82;;;29.18;;
38266;SDS011;24063;51.794;19.578;2022-12-18T03:20:18;37.37;;;31.69;;
38266;SDS011;24063;51.794;19.578;2022-12-18T03:21:27;36.02;;;30.69;;
38266;SDS011;24063;51.794;19.578;2022-12-18T03:22:35;33.73;;;29.43;;
38266;SDS011;24063;51.794;19.578;2022-12-18T03:23:46;32.05;;;28.13;;
38266;SDS011;24063;51.794;19.578;2022-12-18T03:24:53;32.70;;;28.76;;
38266;SDS011;24063;51.794;19.578;2022-12-18T03:26:02;32.23;;;28.11;;
38266;SDS011;24063;51.794;19.578;2022-12-18T03:27:12;32.98;;;28.94;;
38266;SDS011;24063;51.794;19.578;2022-12-18T03:28:21;36.29;;;31.13;;
38266;SDS011;24063;51.794;19.578;2022-12-18T03:29:33;35.51;;;29.95;;
38266;SDS011;24063;51.794;19.578;2022-12-18T03:30:47;34.92;;;30.15;;
38266;SDS011;24063;51.794;19.578;2022-12-18T03:32:08;34.62;;;29.40;;
38266;SDS011;24063;51.794;19.578;2022-12-18T03:33:18;33.11;;;29.45;;
38266;SDS011;24063;51.794;19.578;2022-12-18T03:34:32;32.21;;;28.80;;
38266;SDS011;24063;51.794;19.578;2022-12-18T03:35:40;34.77;;;29.92;;
38266;SDS011;24063;51.794;19.578;2022-12-18T03:36:45;33.34;;;29.29;;
38266;SDS011;24063;51.794;19.578;2022-12-18T03:37:47;31.26;;;27.94;;
38266;SDS011;24063;51.794;19.578;2022-12-18T03:38:51;31.74;;;27.95;;
38266;SDS011;24063;51.794;19.578;2022-12-18T03:39:54;32.03;;;28.09;;
38266;SDS011;24063;51.794;19.578;2022-12-18T03:42:48;32.00;;;28.25;;
38266;SDS011;24063;51.794;19.578;2022-12-18T03:43:58;29.20;;;26.38;;
38266;SDS011;24063;51.794;19.578;2022-12-18T03:47:03;34.09;;;29.72;;
38266;SDS011;24063;51.794;19.578;2022-12-18T03:48:21;31.57;;;27.89;;
38266;SDS011;24063;51.794;19.578;2022-12-18T03:49:53;30.10;;;26.57;;
38266;SDS011;24063;51.794;19.578;2022-12-18T03:51:38;29.07;;;26.60;;
38266;SDS011;24063;51.794;19.578;2022-12-18T03:52:49;30.58;;;27.16;;
38266;SDS011;24063;51.794;19.578;2022-12-18T03:54:06;31.76;;;27.89;;
38266;SDS011;24063;51.794;19.578;2022-12-18T03:55:17;29.69;;;26.92;;
38266;SDS011;24063;51.794;19.578;2022-12-18T03:56:31;30.60;;;27.06;;
38266;SDS011;24063;51.794;19.578;2022-12-18T03:57:42;33.59;;;28.60;;
38266;SDS011;24063;51.794;19.578;2022-12-18T03:58:50;29.77;;;25.92;;
38266;SDS011;24063;51.794;19.578;2022-12-18T04:00:00;28.62;;;25.19;;
38266;SDS011;24063;51.794;19.578;2022-12-18T04:01:15;31.44;;;27.49;;
38266;SDS011;24063;51.794;19.578;2022-12-18T04:02:20;30.19;;;27.10;;
38266;SDS011;24063;51.794;19.578;2022-12-18T04:03:29;32.48;;;28.84;;
38266;SDS011;24063;51.794;19.578;2022-12-18T04:04:37;32.64;;;28.85;;
38266;SDS011;24063;51.794;19.578;2022-12-18T04:05:43;31.24;;;27.51;;
38266;SDS011;24063;51.794;19.578;2022-12-18T04:06:51;32.15;;;28.09;;
38266;SDS011;24063;51.794;19.578;2022-12-18T04:07:54;32.77;;;28.96;;
38266;SDS011;24063;51.794;19.578;2022-12-18T04:08:59;33.51;;;29.27;;
38266;SDS011;24063;51.794;19.578;2022-12-18T04:10:02;30.74;;;27.36;;
38266;SDS011;24063;51.794;19.578;2022-12-18T04:11:12;34.00;;;30.36;;
38266;SDS011;24063;51.794;19.578;2022-12-18T04:12:14;33.73;;;30.33;;
38266;SDS011;24063;51.794;19.578;2022-12-18T04:13:25;32.47;;;29.10;;
38266;SDS011;24063;51.794;19.578;2022-12-18T04:14:31;32.26;;;28.75;;
38266;SDS011;24063;51.794;19.578;2022-12-18T04:15:37;31.87;;;28.36;;
38266;SDS011;24063;51.794;19.578;2022-12-18T04:16:44;30.04;;;26.85;;
38266;SDS011;24063;51.794;19.578;2022-12-18T04:17:49;34.82;;;29.94;;
38266;SDS011;24063;51.794;19.578;2022-12-18T04:18:55;33.21;;;29.46;;
38266;SDS011;24063;51.794;19.578;2022-12-18T04:19:59;30.58;;;27.57;;
38266;SDS011;24063;51.794;19.578;2022-12-18T04:21:01;32.70;;;29.14;;
38266;SDS011;24063;51.794;19.578;2022-12-18T04:22:04;32.83;;;29.36;;
38266;SDS011;24063;51.794;19.578;2022-12-18T04:23:11;31.29;;;28.01;;
38266;SDS011;24063;51.794;19.578;2022-12-18T04:24:14;31.01;;;28.09;;
38266;SDS011;24063;51.794;19.578;2022-12-18T04:25:24;33.01;;;29.77;;
38266;SDS011;24063;51.794;19.578;2022-12-18T04:26:35;34.21;;;30.29;;
38266;SDS011;24063;51.794;19.578;2022-12-18T04:27:46;35.31;;;31.71;;
38266;SDS011;24063;51.794;19.578;2022-12-18T04:28:48;33.88;;;31.09;;
38266;SDS011;24063;51.794;19.578;2022-12-18T04:29:51;36.64;;;33.43;;
38266;SDS011;24063;51.794;19.578;2022-12-18T04:30:53;35.90;;;32.75;;
38266;SDS011;24063;51.794;19.578;2022-12-18T04:31:56;36.14;;;32.82;;
38266;SDS011;24063;51.794;19.578;2022-12-18T04:33:01;35.71;;;31.99;;
38266;SDS011;24063;51.794;19.578;2022-12-18T04:34:04;39.50;;;35.28;;
38266;SDS011;24063;51.794;19.578;2022-12-18T04:35:11;38.60;;;35.49;;
38266;SDS011;24063;51.794;19.578;2022-12-18T04:36:15;55.77;;;51.80;;
38266;SDS011;24063;51.794;19.578;2022-12-18T04:37:18;52.41;;;48.09;;
38266;SDS011;24063;51.794;19.578;2022-12-18T04:38:23;65.06;;;60.81;;
38266;SDS011;24063;51.794;19.578;2022-12-18T04:39:32;82.66;;;77.32;;
38266;SDS011;24063;51.794;19.578;2022-12-18T04:40:38;72.17;;;65.05;;
38266;SDS011;24063;51.794;19.578;2022-12-18T04:41:48;45.23;;;40.26;;
38266;SDS011;24063;51.794;19.578;2022-12-18T04:42:50;63.41;;;55.20;;
38266;SDS011;24063;51.794;19.578;2022-12-18T04:43:53;68.05;;;58.56;;
38266;SDS011;24063;51.794;19.578;2022-12-18T04:44:55;83.39;;;70.22;;
38266;SDS011;24063;51.794;19.578;2022-12-18T04:46:02;81.67;;;66.77;;
38266;SDS011;24063;51.794;19.578;2022-12-18T04:47:06;62.01;;;51.79;;
38266;SDS011;24063;51.794;19.578;2022-12-18T04:48:09;132.52;;;102.86;;
38266;SDS011;24063;51.794;19.578;2022-12-18T04:49:12;88.66;;;70.79;;
38266;SDS011;24063;51.794;19.578;2022-12-18T04:50:14;60.17;;;50.71;;
38266;SDS011;24063;51.794;19.578;2022-12-18T04:51:16;76.14;;;62.47;;
38266;SDS011;24063;51.794;19.578;2022-12-18T04:52:25;67.38;;;54.54;;
38266;SDS011;24063;51.794;19.578;2022-12-18T04:53:27;47.43;;;40.11;;
38266;SDS011;24063;51.794;19.578;2022-12-18T04:54:29;42.17;;;36.58;;
38266;SDS011;24063;51.794;19.578;2022-12-18T04:55:31;90.81;;;74.56;;
38266;SDS011;24063;51.794;19.578;2022-12-18T04:56:33;103.98;;;82.59;;
38266;SDS011;24063;51.794;19.578;2022-12-18T04:57:35;113.39;;;93.36;;
38266;SDS011;24063;51.794;19.578;2022-12-18T04:58:37;111.83;;;92.23;;
38266;SDS011;24063;51.794;19.578;2022-12-18T04:59:42;61.01;;;51.83;;
38266;SDS011;24063;51.794;19.578;2022-12-18T05:00:44;64.17;;;57.95;;
38266;SDS011;24063;51.794;19.578;2022-12-18T05:01:47;61.85;;;58.32;;
38266;SDS011;24063;51.794;19.578;2022-12-18T05:02:50;48.82;;;45.40;;
38266;SDS011;24063;51.794;19.578;2022-12-18T05:03:52;67.22;;;64.61;;
38266;SDS011;24063;51.794;19.578;2022-12-18T05:04:55;65.26;;;63.64;;
38266;SDS011;24063;51.794;19.578;2022-12-18T05:05:57;57.23;;;54.68;;
38266;SDS011;24063;51.794;19.578;2022-12-18T05:06:59;48.78;;;46.55;;
38266;SDS011;24063;51.794;19.578;2022-12-18T05:08:01;46.89;;;45.05;;
38266;SDS011;24063;51.794;19.578;2022-12-18T05:09:03;52.61;;;49.04;;
38266;SDS011;24063;51.794;19.578;2022-12-18T05:10:06;48.97;;;43.73;;
38266;SDS011;24063;51.794;19.578;2022-12-18T05:11:10;51.87;;;47.05;;
38266;SDS011;24063;51.794;19.578;2022-12-18T05:12:17;41.55;;;38.39;;
38266;SDS011;24063;51.794;19.578;2022-12-18T05:13:19;39.94;;;37.10;;
38266;SDS011;24063;51.794;19.578;2022-12-18T05:14:21;37.46;;;34.50;;
38266;SDS011;24063;51.794;19.578;2022-12-18T05:15:23;39.43;;;36.11;;
38266;SDS011;24063;51.794;19.578;2022-12-18T05:16:29;41.22;;;37.06;;
38266;SDS011;24063;51.794;19.578;2022-12-18T05:17:31;44.28;;;39.51;;
38266;SDS011;24063;51.794;19.578;2022-12-18T05:18:33;42.45;;;37.05;;
38266;SDS011;24063;51.794;19.578;2022-12-18T05:19:36;40.62;;;35.59;;
38266;SDS011;24063;51.794;19.578;2022-12-18T05:20:37;41.91;;;36.27;;
38266;SDS011;24063;51.794;19.578;2022-12-18T05:21:40;44.28;;;37.98;;
38266;SDS011;24063;51.794;19.578;2022-12-18T05:22:41;41.91;;;37.00;;
38266;SDS011;24063;51.794;19.578;2022-12-18T05:23:43;42.05;;;37.36;;
38266;SDS011;24063;51.794;19.578;2022-12-18T05:24:45;42.98;;;38.74;;
38266;SDS011;24063;51.794;19.578;2022-12-18T05:25:50;49.56;;;44.74;;
38266;SDS011;24063;51.794;19.578;2022-12-18T05:26:54;58.16;;;51.01;;
38266;SDS011;24063;51.794;19.578;2022-12-18T05:27:56;54.89;;;48.69;;
38266;SDS011;24063;51.794;19.578;2022-12-18T05:28:59;58.21;;;51.53;;
38266;SDS011;24063;51.794;19.578;2022-12-18T05:30:01;54.69;;;48.26;;
38266;SDS011;24063;51.794;19.578;2022-12-18T05:31:04;49.09;;;43.49;;
38266;SDS011;24063;51.794;19.578;2022-12-18T05:32:07;48.14;;;42.52;;
38266;SDS011;24063;51.794;19.578;2022-12-18T05:33:09;47.58;;;42.45;;
38266;SDS011;24063;51.794;19.578;2022-12-18T05:34:11;43.63;;;39.67;;
38266;SDS011;24063;51.794;19.578;2022-12-18T05:35:14;46.24;;;41.24;;
38266;SDS011;24063;51.794;19.578;2022-12-18T05:36:16;50.14;;;44.39;;
38266;SDS011;24063;51.794;19.578;2022-12-18T05:37:19;62.85;;;56.31;;
38266;SDS011;24063;51.794;19.578;2022-12-18T05:38:21;51.12;;;45.86;;
38266;SDS011;24063;51.794;19.578;2022-12-18T05:39:24;51.75;;;46.33;;
38266;SDS011;24063;51.794;19.578;2022-12-18T05:40:26;50.91;;;45.50;;
38266;SDS011;24063;51.794;19.578;2022-12-18T05:41:28;45.14;;;40.52;;
38266;SDS011;24063;51.794;19.578;2022-12-18T05:42:30;50.24;;;43.66;;
38266;SDS011;24063;51.794;19.578;2022-12-18T05:43:33;54.82;;;47.86;;
38266;SDS011;24063;51.794;19.578;2022-12-18T05:44:40;55.29;;;48.62;;
38266;SDS011;24063;51.794;19.578;2022-12-18T05:45:42;55.13;;;47.80;;
38266;SDS011;24063;51.794;19.578;2022-12-18T05:46:44;56.81;;;49.58;;
38266;SDS011;24063;51.794;19.578;2022-12-18T05:47:46;56.58;;;49.11;;
38266;SDS011;24063;51.794;19.578;2022-12-18T05:48:48;45.64;;;40.20;;
38266;SDS011;24063;51.794;19.578;2022-12-18T05:49:52;48.80;;;42.65;;
38266;SDS011;24063;51.794;19.578;2022-12-18T05:50:54;49.87;;;43.25;;
38266;SDS011;24063;51.794;19.578;2022-12-18T05:51:56;49.63;;;44.02;;
38266;SDS011;24063;51.794;19.578;2022-12-18T05:52:58;50.04;;;45.10;;
38266;SDS011;24063;51.794;19.578;2022-12-18T05:54:00;44.15;;;39.07;;
38266;SDS011;24063;51.794;19.578;2022-12-18T05:55:02;47.95;;;41.46;;
38266;SDS011;24063;51.794;19.578;2022-12-18T05:56:05;47.93;;;42.16;;
38266;SDS011;24063;51.794;19.578;2022-12-18T05:57:09;54.09;;;46.87;;
38266;SDS011;24063;51.794;19.578;2022-12-18T05:58:12;53.36;;;47.36;;
38266;SDS011;24063;51.794;19.578;2022-12-18T05:59:15;49.46;;;44.87;;
38266;SDS011;24063;51.794;19.578;2022-12-18T06:00:17;47.12;;;42.28;;
38266;SDS011;24063;51.794;19.578;2022-12-18T06:01:21;48.52;;;42.55;;
38266;SDS011;24063;51.794;19.578;2022-12-18T06:02:25;50.43;;;45.03;;
38266;SDS011;24063;51.794;19.578;2022-12-18T06:03:27;47.75;;;43.19;;
38266;SDS011;24063;51.794;19.578;2022-12-18T06:04:38;49.09;;;44.79;;
38266;SDS011;24063;51.794;19.578;2022-12-18T06:05:41;50.06;;;45.31;;
38266;SDS011;24063;51.794;19.578;2022-12-18T06:06:45;49.39;;;43.46;;
38266;SDS011;24063;51.794;19.578;2022-12-18T06:07:47;47.82;;;41.84;;
38266;SDS011;24063;51.794;19.578;2022-12-18T06:08:51;44.76;;;39.53;;
38266;SDS011;24063;51.794;19.578;2022-12-18T06:09:54;43.57;;;38.68;;
38266;SDS011;24063;51.794;19.578;2022-12-18T06:10:57;46.81;;;40.86;;
38266;SDS011;24063;51.794;19.578;2022-12-18T06:11:59;45.06;;;39.85;;
38266;SDS011;24063;51.794;19.578;2022-12-18T06:13:01;46.32;;;40.38;;
38266;SDS011;24063;51.794;19.578;2022-12-18T06:14:03;46.15;;;40.88;;
38266;SDS011;24063;51.794;19.578;2022-12-18T06:15:08;49.42;;;44.37;;
38266;SDS011;24063;51.794;19.578;2022-12-18T06:16:10;46.04;;;40.60;;
38266;SDS011;24063;51.794;19.578;2022-12-18T06:17:12;47.04;;;41.70;;
38266;SDS011;24063;51.794;19.578;2022-12-18T06:18:14;43.86;;;38.54;;
38266;SDS011;24063;51.794;19.578;2022-12-18T06:19:16;46.71;;;40.62;;
38266;SDS011;24063;51.794;19.578;2022-12-18T06:20:18;46.50;;;41.17;;
38266;SDS011;24063;51.794;19.578;2022-12-18T06:21:20;48.17;;;43.07;;
38266;SDS011;24063;51.794;19.578;2022-12-18T06:22:22;44.57;;;40.51;;
38266;SDS011;24063;51.794;19.578;2022-12-18T06:23:24;44.85;;;40.78;;
38266;SDS011;24063;51.794;19.578;2022-12-18T06:24:26;50.98;;;45.78;;
38266;SDS011;24063;51.794;19.578;2022-12-18T06:25:28;50.96;;;45.62;;
38266;SDS011;24063;51.794;19.578;2022-12-18T06:26:31;44.20;;;39.88;;
38266;SDS011;24063;51.794;19.578;2022-12-18T06:27:32;45.38;;;40.06;;
38266;SDS011;24063;51.794;19.578;2022-12-18T06:28:35;48.69;;;42.02;;
38266;SDS011;24063;51.794;19.578;2022-12-18T06:29:37;49.73;;;43.50;;
38266;SDS011;24063;51.794;19.578;2022-12-18T06:30:39;48.26;;;43.27;;
38266;SDS011;24063;51.794;19.578;2022-12-18T06:31:41;44.06;;;39.65;;
38266;SDS011;24063;51.794;19.578;2022-12-18T06:32:43;48.45;;;41.58;;
38266;SDS011;24063;51.794;19.578;2022-12-18T06:33:48;43.51;;;39.00;;
38266;SDS011;24063;51.794;19.578;2022-12-18T06:34:50;44.43;;;39.60;;
38266;SDS011;24063;51.794;19.578;2022-12-18T06:35:52;43.94;;;38.97;;
38266;SDS011;24063;51.794;19.578;2022-12-18T06:37:01;45.78;;;39.61;;
38266;SDS011;24063;51.794;19.578;2022-12-18T06:38:03;46.66;;;40.51;;
38266;SDS011;24063;51.794;19.578;2022-12-18T06:39:06;49.32;;;43.39;;